Time;durP1;ratioP1;P1;durP2;ratioP2;P2;SDS_P1;SDS_P2;PMS_P1;PMS_P2;Temp;Humidity;BMP_temperature;BMP_pressure;BME280_temperature;BME280_humidity;BME280_pressure;Samples;Min_cycle;Max_cycle;Signal;HPM_P1;HPM_P2
2021/10/20 00:00:23;;;;;;;7.03;5.60;;;15.60;99.90;;;;;;5075662;28;20429;-47
2021/10/20 00:02:51;;;;;;;5.77;5.27;;;15.60;99.90;;;;;;5075672;28;20450;-46
2021/10/20 00:05:18;;;;;;;6.40;5.80;;;15.60;99.90;;;;;;5075431;28;20471;-46
2021/10/20 00:07:47;;;;;;;6.67;6.07;;;15.30;99.90;;;;;;5075066;28;20422;-46
2021/10/20 00:10:14;;;;;;;6.23;5.63;;;15.50;99.90;;;;;;5075443;28;20429;-46
2021/10/20 00:12:41;;;;;;;6.17;5.67;;;15.50;99.90;;;;;;5075610;28;20520;-45
2021/10/20 00:15:11;;;;;;;7.27;6.47;;;15.30;99.90;;;;;;5075324;28;20934;-46
2021/10/20 00:17:38;;;;;;;7.07;6.30;;;15.60;99.90;;;;;;5075318;28;20472;-46
2021/10/20 00:20:11;;;;;;;8.33;6.30;;;15.30;99.90;;;;;;5075044;28;20937;-47
2021/10/20 00:22:39;;;;;;;8.80;8.00;;;15.40;99.90;;;;;;5075544;28;20457;-46
2021/10/20 00:25:07;;;;;;;9.00;8.10;;;15.30;99.90;;;;;;5075442;28;20437;-47
2021/10/20 00:27:34;;;;;;;7.50;6.70;;;15.30;99.90;;;;;;5075563;28;20426;-46
2021/10/20 00:30:00;;;;;;;7.70;7.00;;;15.40;99.90;;;;;;5074853;28;20917;-46
2021/10/20 00:32:27;;;;;;;7.90;7.10;;;15.30;99.90;;;;;;5074926;28;20545;-46
2021/10/20 00:34:54;;;;;;;8.30;7.30;;;15.30;99.90;;;;;;5076396;28;20448;-46
2021/10/20 00:37:22;;;;;;;7.07;6.33;;;15.30;99.90;;;;;;5078492;28;20484;-44
2021/10/20 00:39:48;;;;;;;7.23;6.53;;;15.20;99.90;;;;;;5074575;28;20433;-46
2021/10/20 00:42:17;;;;;;;7.60;7.00;;;15.20;99.90;;;;;;5074635;28;20460;-47
2021/10/20 00:44:46;;;;;;;8.63;7.13;;;15.20;99.90;;;;;;5074573;28;20461;-46
2021/10/20 00:47:13;;;;;;;8.10;7.13;;;15.20;99.90;;;;;;5074585;28;20441;-46
2021/10/20 00:49:39;;;;;;;8.37;7.57;;;15.20;99.90;;;;;;5074154;28;20809;-46
2021/10/20 00:52:06;;;;;;;7.97;7.00;;;15.20;99.90;;;;;;5074279;28;20465;-46
2021/10/20 00:54:35;;;;;;;9.33;7.67;;;15.00;99.90;;;;;;5074666;28;20813;-46
2021/10/20 00:57:02;;;;;;;8.90;7.70;;;15.10;99.90;;;;;;5056556;28;20489;-46
2021/10/20 00:59:29;;;;;;;7.97;7.00;;;15.10;99.90;;;;;;5074185;28;20464;-46
2021/10/20 01:01:56;;;;;;;8.13;7.40;;;15.10;99.90;;;;;;5073496;28;20458;-46
2021/10/20 01:04:22;;;;;;;9.67;8.77;;;15.20;99.90;;;;;;5074757;28;20441;-46
2021/10/20 01:06:49;;;;;;;9.77;8.77;;;15.10;99.90;;;;;;5056433;28;20578;-45
2021/10/20 01:09:15;;;;;;;9.60;8.60;;;14.90;99.90;;;;;;5073940;28;20799;-48
2021/10/20 01:11:43;;;;;;;9.10;8.20;;;15.10;99.90;;;;;;5074138;28;20465;-46
2021/10/20 01:14:10;;;;;;;12.07;9.10;;;14.90;99.90;;;;;;5074031;28;20440;-45
2021/10/20 01:16:37;;;;;;;10.37;9.07;;;15.10;99.90;;;;;;5074058;28;20828;-45
2021/10/20 01:19:06;;;;;;;10.70;9.57;;;15.00;99.90;;;;;;5055719;28;20814;-48
2021/10/20 01:21:34;;;;;;;9.57;8.53;;;15.10;99.90;;;;;;5073988;28;20457;-46
2021/10/20 01:24:01;;;;;;;11.33;10.17;;;15.10;99.90;;;;;;5073887;28;20448;-46
2021/10/20 01:26:28;;;;;;;12.07;9.90;;;15.10;99.90;;;;;;5073916;28;20429;-48
2021/10/20 01:28:55;;;;;;;12.13;10.67;;;14.60;99.90;;;;;;5073358;28;20828;-46
2021/10/20 01:31:22;;;;;;;10.93;9.83;;;15.00;99.90;;;;;;5073846;28;20464;-46
2021/10/20 01:33:48;;;;;;;12.13;10.10;;;15.10;99.90;;;;;;5074185;28;20948;-46
2021/10/20 01:36:15;;;;;;;12.50;11.00;;;15.00;99.90;;;;;;5073985;28;20442;-46
2021/10/20 01:38:43;;;;;;;14.53;11.73;;;15.20;99.90;;;;;;5073606;28;20484;-46
2021/10/20 01:41:10;;;;;;;13.80;12.03;;;14.70;99.90;;;;;;5056004;28;20454;-46
2021/10/20 01:43:39;;;;;;;13.80;11.13;;;15.00;99.90;;;;;;5073806;28;20798;-46
2021/10/20 01:46:06;;;;;;;15.37;12.40;;;15.00;99.90;;;;;;5073690;28;20956;-46
2021/10/20 01:48:32;;;;;;;13.50;12.07;;;15.00;99.90;;;;;;5073234;28;20430;-46
2021/10/20 01:50:59;;;;;;;14.60;11.30;;;14.90;99.90;;;;;;5073458;28;20458;-46
2021/10/20 01:53:25;;;;;;;13.63;12.23;;;14.90;99.90;;;;;;5075046;28;20927;-46
2021/10/20 01:55:53;;;;;;;14.67;13.23;;;14.60;99.90;;;;;;5057654;28;20806;-46
2021/10/20 01:58:20;;;;;;;15.23;13.60;;;14.80;99.90;;;;;;5072872;28;20836;-46
2021/10/20 02:00:47;;;;;;;14.93;13.40;;;15.00;99.90;;;;;;5073304;28;20436;-47
2021/10/20 02:03:14;;;;;;;16.17;13.73;;;15.00;99.90;;;;;;5073281;28;20457;-46
2021/10/20 02:05:40;;;;;;;15.23;13.63;;;14.80;99.90;;;;;;5073263;28;20768;-46
2021/10/20 02:08:07;;;;;;;15.07;13.57;;;14.80;99.90;;;;;;5072754;28;20445;-48
2021/10/20 02:10:34;;;;;;;14.70;13.20;;;14.60;99.90;;;;;;5072878;28;20430;-46
2021/10/20 02:13:02;;;;;;;14.40;12.77;;;14.80;99.90;;;;;;5072818;28;20442;-47
2021/10/20 02:15:31;;;;;;;15.57;14.00;;;14.90;99.90;;;;;;5054998;28;21035;-46
2021/10/20 02:17:57;;;;;;;14.70;13.17;;;14.90;99.90;;;;;;5072539;28;20469;-47
2021/10/20 02:20:24;;;;;;;16.80;14.03;;;14.90;99.90;;;;;;5072913;28;20438;-46
2021/10/20 02:22:50;;;;;;;14.20;12.70;;;14.80;99.90;;;;;;5072669;28;20958;-46
2021/10/20 02:25:17;;;;;;;15.47;13.00;;;15.00;99.90;;;;;;5072822;28;20445;-46
2021/10/20 02:27:44;;;;;;;13.43;12.03;;;14.50;99.90;;;;;;5072304;28;20434;-46
2021/10/20 02:30:12;;;;;;;13.53;12.13;;;14.40;99.90;;;;;;5072647;28;20520;-46
2021/10/20 02:32:39;;;;;;;15.20;13.67;;;14.60;99.90;;;;;;5072744;28;20471;-46
2021/10/20 02:35:08;;;;;;;15.03;12.93;;;14.90;99.90;;;;;;5073152;28;20437;-46
2021/10/20 02:37:35;;;;;;;13.13;11.73;;;14.70;99.90;;;;;;5074588;28;20542;-46
2021/10/20 02:40:01;;;;;;;14.53;13.03;;;14.40;99.90;;;;;;5075824;28;20937;-46
2021/10/20 02:42:28;;;;;;;12.97;11.77;;;14.80;99.90;;;;;;5072537;28;20449;-46
2021/10/20 02:44:55;;;;;;;13.70;11.80;;;14.50;99.90;;;;;;5054314;28;20510;-46
2021/10/20 02:47:23;;;;;;;12.73;11.43;;;14.40;99.90;;;;;;5072404;28;20799;-46
2021/10/20 02:49:49;;;;;;;12.90;11.70;;;14.90;99.90;;;;;;5071940;28;20441;-46
2021/10/20 02:52:18;;;;;;;13.30;11.90;;;14.60;99.90;;;;;;5059342;22;20571;-50
2021/10/20 02:54:45;;;;;;;15.30;11.80;;;14.60;99.90;;;;;;5051970;28;20466;-50
2021/10/20 02:57:11;;;;;;;15.30;11.23;;;14.70;99.90;;;;;;5051845;28;20444;-50
2021/10/20 02:59:38;;;;;;;13.73;12.30;;;14.50;99.90;;;;;;5051633;28;20441;-50
2021/10/20 03:02:05;;;;;;;16.60;12.70;;;14.40;99.90;;;;;;5051828;28;21041;-49
2021/10/20 03:04:32;;;;;;;17.50;11.63;;;14.90;99.90;;;;;;5051894;28;20441;-50
2021/10/20 03:06:59;;;;;;;13.37;11.97;;;14.80;99.90;;;;;;5051760;28;20927;-50
2021/10/20 03:09:27;;;;;;;13.57;11.93;;;14.50;99.90;;;;;;5051399;28;20429;-49
2021/10/20 03:11:53;;;;;;;15.10;12.87;;;14.40;99.90;;;;;;5051767;28;20978;-49
2021/10/20 03:14:20;;;;;;;14.03;12.47;;;14.50;99.90;;;;;;5051795;28;20437;-50
2021/10/20 03:16:47;;;;;;;13.43;12.03;;;14.20;99.90;;;;;;5051700;28;20535;-49
2021/10/20 03:19:13;;;;;;;12.83;11.33;;;14.20;99.90;;;;;;5051104;28;20986;-49
2021/10/20 03:21:41;;;;;;;12.73;11.53;;;14.30;99.90;;;;;;5051545;28;20458;-50
2021/10/20 03:24:08;;;;;;;15.10;12.37;;;14.50;99.90;;;;;;5051110;28;20428;-50
2021/10/20 03:26:35;;;;;;;12.97;11.60;;;14.10;99.90;;;;;;5051712;28;20533;-50
2021/10/20 03:29:02;;;;;;;15.80;11.20;;;14.00;99.90;;;;;;5051202;28;20440;-50
2021/10/20 03:31:28;;;;;;;11.97;10.87;;;14.30;99.90;;;;;;5033839;28;20816;-50
2021/10/20 03:33:55;;;;;;;12.53;11.23;;;14.10;99.90;;;;;;5051335;28;20794;-50
2021/10/20 03:36:22;;;;;;;15.60;12.10;;;14.70;99.90;;;;;;5051306;28;20895;-50
2021/10/20 03:38:50;;;;;;;17.43;12.00;;;14.20;99.90;;;;;;5050937;28;20558;-50
2021/10/20 03:41:17;;;;;;;13.97;11.43;;;14.30;99.90;;;;;;5051343;28;20460;-50
2021/10/20 03:43:43;;;;;;;12.50;10.17;;;14.30;99.90;;;;;;5051322;28;20437;-50
2021/10/20 03:46:10;;;;;;;12.57;11.27;;;14.50;99.90;;;;;;5051304;28;20504;-50
2021/10/20 03:48:37;;;;;;;12.73;11.47;;;14.50;99.90;;;;;;5050957;28;20438;-50
2021/10/20 03:51:03;;;;;;;14.03;11.50;;;14.40;99.90;;;;;;5051326;28;20953;-49
2021/10/20 03:53:30;;;;;;;11.73;10.53;;;14.50;99.90;;;;;;5051243;28;20460;-49
2021/10/20 03:55:58;;;;;;;11.90;10.50;;;14.30;99.90;;;;;;5051334;28;20425;-49
2021/10/20 03:58:25;;;;;;;12.63;10.40;;;14.30;99.90;;;;;;5050807;28;20477;-49
2021/10/20 04:00:54;;;;;;;11.50;10.30;;;14.40;99.90;;;;;;5051262;28;20437;-49
2021/10/20 04:03:20;;;;;;;13.87;11.37;;;14.50;99.90;;;;;;5050843;28;20456;-49
2021/10/20 04:05:47;;;;;;;11.07;9.97;;;14.50;99.90;;;;;;5051030;28;20521;-49
2021/10/20 04:08:14;;;;;;;11.23;10.23;;;14.40;99.90;;;;;;5050979;28;20431;-49
2021/10/20 04:10:40;;;;;;;16.83;10.90;;;14.50;99.90;;;;;;5050951;28;20441;-49
2021/10/20 04:13:09;;;;;;;12.50;11.30;;;14.60;99.90;;;;;;5051040;28;20469;-49
2021/10/20 04:15:36;;;;;;;13.00;10.57;;;14.40;99.90;;;;;;5051065;28;20436;-49
2021/10/20 04:18:02;;;;;;;11.27;10.00;;;14.60;99.90;;;;;;5050509;28;20521;-49
2021/10/20 04:20:29;;;;;;;15.73;11.43;;;14.60;99.90;;;;;;5050921;28;20464;-49
2021/10/20 04:22:55;;;;;;;13.33;11.90;;;14.50;99.90;;;;;;5050919;28;20453;-49
2021/10/20 04:25:22;;;;;;;11.60;10.43;;;14.40;99.90;;;;;;5033076;28;20454;-49
2021/10/20 04:27:51;;;;;;;12.13;10.87;;;14.40;99.90;;;;;;5050436;28;20439;-51
2021/10/20 04:30:21;;;;;;;11.63;10.43;;;14.00;99.90;;;;;;5050455;28;20438;-49
2021/10/20 04:32:48;;;;;;;13.00;10.50;;;14.20;99.90;;;;;;5050633;28;20811;-50
2021/10/20 04:35:14;;;;;;;11.83;10.50;;;14.60;99.90;;;;;;5032583;28;20991;-50
2021/10/20 04:37:41;;;;;;;11.80;10.60;;;14.70;99.90;;;;;;5035838;28;20442;-50
2021/10/20 04:40:10;;;;;;;11.27;9.10;;;14.60;99.90;;;;;;5054463;28;20484;-50
2021/10/20 04:42:37;;;;;;;9.90;8.90;;;14.40;99.90;;;;;;5054390;28;20454;-50
2021/10/20 04:45:04;;;;;;;17.40;12.60;;;14.40;99.90;;;;;;5054441;28;20847;-50
2021/10/20 04:47:32;;;;;;;11.53;9.90;;;14.40;99.90;;;;;;5054293;28;20780;-50
2021/10/20 04:50:00;;;;;;;10.67;9.63;;;14.60;99.90;;;;;;5053821;28;20427;-50
2021/10/20 04:52:27;;;;;;;12.13;10.33;;;14.50;99.90;;;;;;5054128;28;20553;-50
2021/10/20 04:54:54;;;;;;;11.70;10.50;;;14.30;99.90;;;;;;5054135;28;20445;-50
2021/10/20 04:57:21;;;;;;;12.20;10.37;;;14.60;99.90;;;;;;5054021;28;20446;-50
2021/10/20 04:59:47;;;;;;;11.93;10.10;;;14.40;99.90;;;;;;5053550;28;20477;-50
2021/10/20 05:02:14;;;;;;;10.83;9.80;;;14.60;99.90;;;;;;5054062;28;20450;-50
2021/10/20 05:04:42;;;;;;;11.50;10.37;;;14.60;99.90;;;;;;5054009;28;21122;-49
2021/10/20 05:07:11;;;;;;;11.97;10.43;;;14.10;99.90;;;;;;5053714;28;20430;-50
2021/10/20 05:09:37;;;;;;;12.00;9.30;;;14.30;99.90;;;;;;5053417;28;20530;-49
2021/10/20 05:12:05;;;;;;;10.17;9.00;;;14.30;99.90;;;;;;5053662;28;20817;-50
2021/10/20 05:14:31;;;;;;;13.37;10.00;;;14.30;99.90;;;;;;5053904;28;20896;-49
2021/10/20 05:16:58;;;;;;;9.73;8.83;;;14.20;99.90;;;;;;5053733;28;20431;-50
2021/10/20 05:19:25;;;;;;;10.70;9.60;;;14.20;99.90;;;;;;5052991;28;20480;-49
2021/10/20 05:21:53;;;;;;;12.90;10.40;;;14.00;99.90;;;;;;5053358;28;20458;-50
2021/10/20 05:24:19;;;;;;;11.20;10.20;;;14.10;99.90;;;;;;5052894;28;20943;-50
2021/10/20 05:26:46;;;;;;;11.57;9.57;;;14.00;99.90;;;;;;5053489;28;20434;-50
2021/10/20 05:29:13;;;;;;;11.10;10.00;;;14.20;99.90;;;;;;5053221;28;20432;-49
2021/10/20 05:31:39;;;;;;;9.93;8.80;;;14.20;99.90;;;;;;5053264;28;20465;-50
2021/10/20 05:34:06;;;;;;;9.87;8.97;;;14.30;99.90;;;;;;5053247;28;20439;-50
2021/10/20 05:36:33;;;;;;;12.20;9.57;;;14.80;99.90;;;;;;5053226;28;20435;-50
2021/10/20 05:39:00;;;;;;;10.30;9.30;;;14.30;99.90;;;;;;5053131;28;20999;-50
2021/10/20 05:41:27;;;;;;;10.37;9.20;;;14.20;99.90;;;;;;5052798;28;20453;-50
2021/10/20 05:43:54;;;;;;;9.50;8.60;;;14.30;99.90;;;;;;5053172;28;20449;-50
2021/10/20 05:46:20;;;;;;;10.60;9.50;;;13.90;99.90;;;;;;5052738;28;20440;-49
2021/10/20 05:48:47;;;;;;;9.67;8.70;;;14.30;99.90;;;;;;5052702;28;20513;-50
2021/10/20 05:51:14;;;;;;;10.50;9.37;;;14.00;99.90;;;;;;5052616;28;20443;-49
2021/10/20 05:53:40;;;;;;;9.33;8.30;;;14.30;99.90;;;;;;5052849;28;20824;-50
2021/10/20 05:56:08;;;;;;;10.17;9.03;;;14.30;99.90;;;;;;5052797;28;20482;-50
2021/10/20 05:58:35;;;;;;;10.30;9.00;;;13.90;99.90;;;;;;5052356;28;20474;-50
2021/10/20 06:01:01;;;;;;;9.83;8.60;;;14.60;99.90;;;;;;5053033;28;20945;-50
2021/10/20 06:03:28;;;;;;;8.80;7.90;;;14.30;99.90;;;;;;5034930;28;20462;-50
2021/10/20 06:05:54;;;;;;;11.00;8.10;;;14.40;99.90;;;;;;5052490;28;20431;-49
2021/10/20 06:08:21;;;;;;;9.67;8.00;;;13.90;99.90;;;;;;5052712;28;20458;-49
2021/10/20 06:10:48;;;;;;;9.33;7.80;;;13.90;99.90;;;;;;5052501;28;20446;-49
2021/10/20 06:13:15;;;;;;;9.40;7.53;;;14.30;99.90;;;;;;5052214;28;20832;-49
2021/10/20 06:15:42;;;;;;;8.13;7.33;;;14.20;99.90;;;;;;5052223;28;20427;-49
2021/10/20 06:18:09;;;;;;;9.97;8.90;;;14.40;99.90;;;;;;5051676;28;20451;-49
2021/10/20 06:20:35;;;;;;;8.30;7.50;;;14.40;99.90;;;;;;5051735;28;20463;-51
2021/10/20 06:23:03;;;;;;;9.37;7.80;;;14.30;99.90;;;;;;5051921;28;21015;-51
2021/10/20 06:25:30;;;;;;;9.40;8.40;;;14.30;99.90;;;;;;5051890;28;20874;-49
2021/10/20 06:27:56;;;;;;;8.33;7.60;;;14.70;99.90;;;;;;5051302;28;20426;-50
2021/10/20 06:30:24;;;;;;;9.20;7.67;;;13.90;99.90;;;;;;5052199;28;20431;-50
2021/10/20 06:32:51;;;;;;;7.30;6.60;;;14.80;99.90;;;;;;5051494;28;20453;-50
2021/10/20 06:35:18;;;;;;;8.00;6.57;;;14.40;99.90;;;;;;5051930;28;20437;-50
2021/10/20 06:37:47;;;;;;;8.17;6.70;;;14.50;99.90;;;;;;5051416;28;20434;-49
2021/10/20 06:40:14;;;;;;;8.50;7.70;;;14.30;99.90;;;;;;5052133;28;20522;-49
2021/10/20 06:42:41;;;;;;;9.40;7.13;;;14.50;99.90;;;;;;5051595;28;21000;-50
2021/10/20 06:45:08;;;;;;;7.20;6.50;;;14.30;99.90;;;;;;5051821;28;20449;-50
2021/10/20 06:47:37;;;;;;;8.63;7.73;;;14.50;99.90;;;;;;5051799;28;20762;-49
2021/10/20 06:50:06;;;;;;;8.47;7.67;;;14.50;99.90;;;;;;5052414;28;20427;-49
2021/10/20 06:52:32;;;;;;;10.17;6.60;;;14.50;99.90;;;;;;5051094;28;20466;-50
2021/10/20 06:54:59;;;;;;;9.27;6.70;;;14.50;99.90;;;;;;5051161;28;20442;-50
2021/10/20 06:57:25;;;;;;;7.57;6.80;;;14.70;99.90;;;;;;5051101;28;20438;-50
2021/10/20 06:59:52;;;;;;;9.83;6.07;;;15.00;99.90;;;;;;5050311;28;20489;-50
2021/10/20 07:02:19;;;;;;;12.10;6.37;;;14.90;99.90;;;;;;5051590;28;20466;-50
2021/10/20 07:04:47;;;;;;;8.67;5.90;;;14.60;99.90;;;;;;5051587;28;20500;-50
2021/10/20 07:07:14;;;;;;;6.90;5.70;;;14.60;99.90;;;;;;5051132;28;20519;-50
2021/10/20 07:09:41;;;;;;;10.33;6.70;;;14.50;99.90;;;;;;5050502;28;20438;-50
2021/10/20 07:12:08;;;;;;;8.10;6.00;;;14.70;99.90;;;;;;5050926;28;20961;-49
2021/10/20 07:14:35;;;;;;;8.33;5.90;;;14.70;99.90;;;;;;5052358;28;20434;-51
2021/10/20 07:17:04;;;;;;;6.10;5.50;;;14.70;99.90;;;;;;5051123;28;20438;-51
2021/10/20 07:19:31;;;;;;;9.77;5.73;;;14.70;99.90;;;;;;5032728;28;20526;-51
2021/10/20 07:21:59;;;;;;;6.53;5.93;;;14.80;99.90;;;;;;5051561;28;20768;-48
2021/10/20 07:24:26;;;;;;;7.00;6.13;;;14.50;99.90;;;;;;5051101;28;20937;-51
2021/10/20 07:26:53;;;;;;;11.43;5.80;;;14.80;99.90;;;;;;5050826;28;20434;-51
2021/10/20 07:29:19;;;;;;;9.70;6.50;;;14.80;99.90;;;;;;5032489;28;20807;-49
2021/10/20 07:31:46;;;;;;;9.83;6.30;;;14.90;99.90;;;;;;5050804;28;20459;-49
2021/10/20 07:34:12;;;;;;;6.30;5.67;;;14.90;99.90;;;;;;5050834;28;20477;-49
2021/10/20 07:36:39;;;;;;;9.83;6.87;;;14.90;99.90;;;;;;5051765;28;20430;-49
2021/10/20 07:39:07;;;;;;;8.13;5.27;;;15.00;99.90;;;;;;5050413;28;20460;-48
2021/10/20 07:41:34;;;;;;;9.73;5.40;;;14.80;99.90;;;;;;5050683;28;20463;-49
2021/10/20 07:44:01;;;;;;;9.77;5.87;;;15.10;99.90;;;;;;5050978;28;20434;-49
2021/10/20 07:46:28;;;;;;;6.07;5.43;;;15.20;99.90;;;;;;5052397;28;20546;-49
2021/10/20 07:48:55;;;;;;;6.30;5.70;;;15.20;99.90;;;;;;5050502;28;20506;-49
2021/10/20 07:51:22;;;;;;;5.93;5.33;;;15.30;99.90;;;;;;5050589;28;20429;-50
2021/10/20 07:53:48;;;;;;;9.33;5.93;;;15.30;99.90;;;;;;5050686;28;20438;-50
2021/10/20 07:56:16;;;;;;;12.27;5.70;;;15.40;99.90;;;;;;5050512;28;20811;-50
2021/10/20 07:58:43;;;;;;;8.93;5.70;;;15.70;99.90;;;;;;5050322;28;20505;-50
2021/10/20 08:01:11;;;;;;;12.40;6.27;;;15.60;99.90;;;;;;5050634;28;20435;-50
2021/10/20 08:03:38;;;;;;;7.33;4.70;;;15.50;99.90;;;;;;5050536;28;21030;-50
2021/10/20 08:06:04;;;;;;;6.10;5.50;;;15.60;99.90;;;;;;5032899;28;20417;-50
2021/10/20 08:08:31;;;;;;;6.90;5.50;;;15.60;99.90;;;;;;5050265;28;20709;-50
2021/10/20 08:10:57;;;;;;;8.23;5.67;;;15.70;99.90;;;;;;5053618;28;20915;-50
2021/10/20 08:13:25;;;;;;;6.90;5.20;;;15.80;99.90;;;;;;5054690;28;20442;-50
2021/10/20 08:15:52;;;;;;;9.27;5.50;;;16.00;99.90;;;;;;5055002;28;20437;-49
2021/10/20 08:18:19;;;;;;;26.23;6.03;;;16.10;99.90;;;;;;5054598;28;20459;-50
2021/10/20 08:20:46;;;;;;;5.43;4.60;;;16.00;99.90;;;;;;5054378;28;20840;-50
2021/10/20 08:23:12;;;;;;;5.53;4.97;;;16.20;99.90;;;;;;5054576;28;20446;-50
2021/10/20 08:25:39;;;;;;;4.80;4.40;;;16.10;99.90;;;;;;5054510;28;20472;-50
2021/10/20 08:28:06;;;;;;;5.20;4.70;;;16.60;99.90;;;;;;5054028;28;20439;-50
2021/10/20 08:30:35;;;;;;;10.73;5.17;;;16.40;99.90;;;;;;5054937;28;20445;-50
2021/10/20 08:33:04;;;;;;;7.60;4.30;;;16.50;99.90;;;;;;5054495;28;20878;-51
2021/10/20 08:35:31;;;;;;;4.50;4.07;;;16.50;99.90;;;;;;5054217;28;20431;-50
2021/10/20 08:38:01;;;;;;;8.23;5.13;;;16.50;99.90;;;;;;5054391;28;20492;-50
2021/10/20 08:40:31;;;;;;;7.43;4.67;;;16.60;99.90;;;;;;5054237;28;20479;-50
2021/10/20 08:42:58;;;;;;;4.67;4.17;;;16.70;99.90;;;;;;5053545;28;20462;-51
2021/10/20 08:45:26;;;;;;;5.03;4.20;;;16.70;99.90;;;;;;5054423;28;20467;-50
2021/10/20 08:47:54;;;;;;;6.50;4.23;;;16.70;99.90;;;;;;5053550;28;20808;-50
2021/10/20 08:50:22;;;;;;;8.00;4.80;;;16.80;99.90;;;;;;5053890;28;20438;-50
2021/10/20 08:52:50;;;;;;;5.70;3.63;;;16.80;99.90;;;;;;5054059;28;20494;-49
2021/10/20 08:55:18;;;;;;;4.77;4.27;;;17.10;99.90;;;;;;5053832;28;20456;-50
2021/10/20 08:57:45;;;;;;;5.23;4.03;;;16.80;99.90;;;;;;5053208;28;20428;-49
2021/10/20 09:00:14;;;;;;;5.03;4.53;;;16.80;99.90;;;;;;5053782;28;20477;-48
2021/10/20 09:02:41;;;;;;;6.03;4.30;;;16.80;99.90;;;;;;5053631;28;20447;-50
2021/10/20 09:05:12;;;;;;;4.73;3.80;;;16.80;99.90;;;;;;5035997;28;20445;-49
2021/10/20 09:07:41;;;;;;;9.17;4.40;;;16.90;99.90;;;;;;5054142;28;20446;-51
2021/10/20 09:10:08;;;;;;;6.80;3.97;;;16.90;99.90;;;;;;5054711;28;20422;-50
2021/10/20 09:12:38;;;;;;;6.17;4.97;;;16.90;99.90;;;;;;5053428;28;20470;-49
2021/10/20 09:15:06;;;;;;;5.43;4.37;;;16.80;99.90;;;;;;5053428;28;20436;-50
2021/10/20 09:17:47;;;;;;;6.07;4.10;;;16.80;99.90;;;;;;5053392;28;20430;-49
2021/10/20 09:20:34;;;;;;;6.40;4.90;;;16.90;99.90;;;;;;5035060;28;20489;-50
2021/10/20 09:23:10;;;;;;;5.40;4.53;;;16.80;99.90;;;;;;5052434;28;20459;-50
2021/10/20 09:25:40;;;;;;;5.60;4.27;;;17.00;99.90;;;;;;5035394;28;20480;-50
2021/10/20 09:28:10;;;;;;;5.97;4.50;;;17.00;99.90;;;;;;5053543;28;20435;-50
2021/10/20 09:30:38;;;;;;;6.40;4.33;;;17.10;99.90;;;;;;5052991;28;20437;-50
2021/10/20 09:33:06;;;;;;;5.60;3.97;;;17.20;99.90;;;;;;5053052;28;20984;-49
2021/10/20 09:35:34;;;;;;;4.97;4.47;;;17.20;99.90;;;;;;5053173;28;20428;-50
2021/10/20 09:38:02;;;;;;;9.27;4.90;;;17.20;99.90;;;;;;5052233;28;20944;-49
2021/10/20 09:40:35;;;;;;;8.60;4.67;;;17.20;99.90;;;;;;5052852;28;20537;-49
2021/10/20 09:43:02;;;;;;;6.80;3.37;;;17.20;99.90;;;;;;5052217;28;20825;-50
2021/10/20 09:45:31;;;;;;;4.60;4.10;;;17.20;99.90;;;;;;5052681;28;20444;-50
2021/10/20 09:48:10;;;;;;;7.77;4.80;;;17.30;99.90;;;;;;5052340;28;20802;-50
2021/10/20 09:50:41;;;;;;;8.63;4.00;;;17.30;99.90;;;;;;5052261;28;20436;-50
2021/10/20 09:53:08;;;;;;;7.50;3.90;;;17.90;99.90;;;;;;5052415;28;20487;-51
2021/10/20 09:55:35;;;;;;;5.83;4.33;;;17.40;99.90;;;;;;5053028;28;20475;-49
2021/10/20 09:58:02;;;;;;;5.70;4.33;;;17.30;99.90;;;;;;5052369;28;20933;-49
2021/10/20 10:00:29;;;;;;;5.87;4.17;;;17.40;99.90;;;;;;5052860;28;20985;-50
2021/10/20 10:02:57;;;;;;;5.80;4.20;;;17.40;99.90;;;;;;5052665;28;20457;-49
2021/10/20 10:05:23;;;;;;;5.30;4.10;;;17.40;99.90;;;;;;5052903;28;20436;-49
2021/10/20 10:07:51;;;;;;;4.83;3.50;;;17.30;99.90;;;;;;5052272;28;20473;-49
2021/10/20 10:10:18;;;;;;;8.70;3.97;;;17.10;99.90;;;;;;5052431;28;20434;-50
2021/10/20 10:12:47;;;;;;;5.30;4.20;;;17.20;99.90;;;;;;5052510;28;20697;-50
2021/10/20 10:15:17;;;;;;;7.33;4.63;;;17.20;99.90;;;;;;5052869;28;20432;-50
2021/10/20 10:17:45;;;;;;;5.33;4.50;;;17.20;99.90;;;;;;5052189;28;20426;-50
2021/10/20 10:20:15;;;;;;;5.63;4.77;;;17.20;99.90;;;;;;5052318;28;20479;-49
2021/10/20 10:22:49;;;;;;;4.70;4.03;;;17.20;99.90;;;;;;5052745;28;20491;-49
2021/10/20 10:25:22;;;;;;;5.03;4.40;;;17.20;99.90;;;;;;5051835;28;20445;-49
2021/10/20 10:28:05;;;;;;;7.37;5.37;;;17.20;99.90;;;;;;5051798;28;20438;-50
2021/10/20 10:30:34;;;;;;;8.47;5.47;;;17.20;99.90;;;;;;5052482;28;20443;-50
2021/10/20 10:33:02;;;;;;;8.43;5.30;;;17.30;99.90;;;;;;5052099;28;20539;-50
2021/10/20 10:35:32;;;;;;;6.63;5.60;;;17.20;99.90;;;;;;5051913;28;20443;-51
2021/10/20 10:38:04;;;;;;;8.40;5.30;;;17.30;99.90;;;;;;5051775;28;20447;-50
2021/10/20 10:40:33;;;;;;;7.47;5.10;;;17.30;99.90;;;;;;5034111;28;20843;-49
2021/10/20 10:43:05;;;;;;;6.73;5.70;;;17.10;99.90;;;;;;5033807;28;20466;-50
2021/10/20 10:45:32;;;;;;;7.33;4.80;;;17.20;99.90;;;;;;5052181;28;20496;-50
2021/10/20 10:48:00;;;;;;;10.13;4.83;;;17.20;99.90;;;;;;5051419;28;20439;-49
2021/10/20 10:50:43;;;;;;;5.80;5.20;;;17.50;99.90;;;;;;5051837;28;20519;-49
2021/10/20 10:53:25;;;;;;;6.53;4.83;;;17.80;99.90;;;;;;5051994;28;20820;-48
2021/10/20 10:56:05;;;;;;;6.97;4.97;;;17.60;99.90;;;;;;5052113;28;20916;-50
2021/10/20 10:59:01;;;;;;;6.00;4.23;;;17.30;99.90;;;;;;5051188;28;20432;-50
2021/10/20 11:01:38;;;;;;;5.60;4.83;;;17.30;99.90;;;;;;5051342;28;20463;-49
2021/10/20 11:04:19;;;;;;;5.60;5.00;;;17.30;99.90;;;;;;5051245;28;20428;-51
2021/10/20 11:06:46;;;;;;;6.20;5.60;;;17.50;99.90;;;;;;5051492;28;20805;-50
2021/10/20 11:09:16;;;;;;;7.70;5.80;;;17.20;99.90;;;;;;5050548;28;20926;-50
2021/10/20 11:11:47;;;;;;;6.37;5.53;;;17.20;99.90;;;;;;5050882;28;20936;-49
2021/10/20 11:14:15;;;;;;;6.50;5.30;;;17.10;99.90;;;;;;5051538;28;20433;-50
2021/10/20 11:16:46;;;;;;;6.93;5.37;;;17.10;99.90;;;;;;5051254;28;20511;-50
2021/10/20 11:19:13;;;;;;;5.70;5.10;;;17.30;99.90;;;;;;5050680;28;20442;-50
2021/10/20 11:21:40;;;;;;;10.23;5.50;;;17.40;99.90;;;;;;5051162;28;20492;-50
2021/10/20 11:24:07;;;;;;;6.27;5.67;;;17.50;99.90;;;;;;5050639;28;20432;-51
2021/10/20 11:26:36;;;;;;;8.60;6.97;;;17.50;99.90;;;;;;5050587;28;20471;-51
2021/10/20 11:29:06;;;;;;;8.47;5.80;;;17.50;99.90;;;;;;5050608;28;20429;-50
2021/10/20 11:31:37;;;;;;;7.83;6.17;;;17.60;99.90;;;;;;5050618;28;20521;-50
2021/10/20 11:34:15;;;;;;;9.10;5.37;;;17.50;99.90;;;;;;5051092;28;20438;-50
2021/10/20 11:36:42;;;;;;;6.20;5.07;;;17.90;99.90;;;;;;5051454;28;20505;-51
2021/10/20 11:39:10;;;;;;;7.47;5.03;;;17.60;99.90;;;;;;5050855;28;20478;-50
2021/10/20 11:41:37;;;;;;;7.17;5.20;;;18.10;99.90;;;;;;5050724;28;20485;-50
2021/10/20 11:44:04;;;;;;;8.60;5.27;;;17.70;99.90;;;;;;5051361;28;20440;-49
2021/10/20 11:46:34;;;;;;;6.33;4.60;;;17.70;99.90;;;;;;5057659;28;20939;-50
2021/10/20 11:49:01;;;;;;;6.57;5.87;;;17.40;99.90;;;;;;5056952;28;20786;-50
2021/10/20 11:51:30;;;;;;;6.50;5.73;;;17.70;99.90;;;;;;5057816;28;20556;-49
2021/10/20 11:53:56;;;;;;;5.83;4.87;;;18.20;99.90;;;;;;5057216;28;20445;-49
2021/10/20 11:56:24;;;;;;;7.00;5.23;;;17.70;99.90;;;;;;5056760;28;20435;-48
2021/10/20 11:58:51;;;;;;;8.23;5.33;;;17.80;99.90;;;;;;5056665;28;20441;-49
2021/10/20 12:01:17;;;;;;;9.67;5.80;;;18.10;99.90;;;;;;5057167;28;20490;-51
2021/10/20 12:03:45;;;;;;;7.63;4.73;;;17.80;99.90;;;;;;5058064;28;20440;-50
2021/10/20 12:06:14;;;;;;;8.30;5.00;;;17.80;99.90;;;;;;5057076;28;20449;-50
2021/10/20 12:08:45;;;;;;;6.43;5.03;;;17.60;99.90;;;;;;5056723;28;20528;-50
2021/10/20 12:11:12;;;;;;;6.10;5.50;;;18.10;99.90;;;;;;5057477;28;20464;-51
2021/10/20 12:13:39;;;;;;;6.37;5.30;;;17.70;99.90;;;;;;5057105;28;20937;-51
2021/10/20 12:16:08;;;;;;;6.80;5.20;;;17.90;99.90;;;;;;5056962;28;20848;-50
2021/10/20 12:18:38;;;;;;;9.30;5.17;;;17.90;99.90;;;;;;5056785;28;20430;-51
2021/10/20 12:21:11;;;;;;;7.23;5.50;;;17.90;99.90;;;;;;5057312;28;20480;-50
2021/10/20 12:23:38;;;;;;;5.50;4.90;;;17.60;99.90;;;;;;5057477;28;20813;-50
2021/10/20 12:26:05;;;;;;;6.80;4.67;;;18.00;99.90;;;;;;5057216;28;20922;-50
2021/10/20 12:28:33;;;;;;;6.67;5.07;;;18.10;99.90;;;;;;5057232;28;20802;-51
2021/10/20 12:31:07;;;;;;;7.33;5.10;;;17.90;99.90;;;;;;5057352;28;20452;-51
2021/10/20 12:33:39;;;;;;;5.23;4.47;;;18.20;99.90;;;;;;5057507;28;20791;-50
2021/10/20 12:36:07;;;;;;;5.03;4.27;;;18.30;99.90;;;;;;5057194;28;20938;-49
2021/10/20 12:38:34;;;;;;;6.57;5.33;;;18.40;99.90;;;;;;5056064;28;20450;-50
2021/10/20 12:41:08;;;;;;;7.67;5.30;;;18.20;99.90;;;;;;5056812;28;20472;-50
2021/10/20 12:43:38;;;;;;;5.70;3.97;;;18.60;99.90;;;;;;5057471;28;20854;-50